Time;durP1;ratioP1;P1;durP2;ratioP2;P2;SDS_P1;SDS_P2;PMS_P1;PMS_P2;Temp;Humidity;BMP_temperature;BMP_pressure;BME280_temperature;BME280_humidity;BME280_pressure;Samples;Min_cycle;Max_cycle;Signal;HPM_P1;HPM_P2
2023/09/22 00:02:05;;;;;;;471.73;245.30;;;;;;;;;;5002750;28;20220;-52
2023/09/22 00:04:32;;;;;;;465.33;243.70;;;;;;;;;;5008959;28;20343;-52
2023/09/22 00:06:58;;;;;;;459.60;242.40;;;;;;;;;;5006047;28;20247;-52
2023/09/22 00:09:24;;;;;;;481.00;245.20;;;;;;;;;;4990691;28;20238;-52
2023/09/22 00:11:50;;;;;;;487.53;254.27;;;;;;;;;;4995499;28;20270;-52
2023/09/22 00:14:16;;;;;;;509.20;265.37;;;;;;;;;;5004800;28;20240;-52
2023/09/22 00:16:42;;;;;;;501.83;263.87;;;;;;;;;;5003267;28;20789;-52
2023/09/22 00:19:08;;;;;;;472.33;248.50;;;;;;;;;;5008071;28;20351;-52
2023/09/22 00:21:35;;;;;;;445.00;230.13;;;;;;;;;;5005255;28;20185;-52
2023/09/22 00:24:02;;;;;;;447.10;229.23;;;;;;;;;;5010512;28;20243;-52
2023/09/22 00:26:28;;;;;;;457.33;235.47;;;;;;;;;;5003604;28;20228;-52
2023/09/22 00:28:56;;;;;;;463.73;246.30;;;;;;;;;;5005192;28;20661;-52
2023/09/22 00:31:22;;;;;;;452.70;232.00;;;;;;;;;;5010203;28;20319;-52
2023/09/22 00:33:48;;;;;;;511.53;266.83;;;;;;;;;;5002695;28;20274;-52
2023/09/22 00:36:16;;;;;;;479.80;250.97;;;;;;;;;;5006942;28;20204;-52
2023/09/22 00:38:42;;;;;;;526.40;279.97;;;;;;;;;;5004112;28;21493;-51
2023/09/22 00:41:07;;;;;;;449.37;228.83;;;;;;;;;;5001977;28;20227;-52
2023/09/22 00:43:33;;;;;;;495.37;257.00;;;;;;;;;;5007016;28;20254;-52
2023/09/22 00:46:00;;;;;;;486.63;254.10;;;;;;;;;;4998788;28;20706;-52
2023/09/22 00:48:29;;;;;;;473.53;238.77;;;;;;;;;;5007717;28;20219;-52
2023/09/22 00:50:56;;;;;;;485.80;252.20;;;;;;;;;;5003836;28;20369;-52
2023/09/22 00:53:25;;;;;;;472.63;239.17;;;;;;;;;;5010986;28;20238;-52
2023/09/22 00:55:52;;;;;;;495.47;258.80;;;;;;;;;;5004089;28;20220;-52
2023/09/22 00:58:18;;;;;;;459.77;234.97;;;;;;;;;;5003588;28;20266;-52
2023/09/22 01:00:49;;;;;;;510.53;271.07;;;;;;;;;;5006391;28;20192;-52
2023/09/22 01:03:16;;;;;;;453.63;231.13;;;;;;;;;;5007193;28;20306;-52
2023/09/22 01:05:42;;;;;;;495.57;255.00;;;;;;;;;;5004418;28;20593;-52
2023/09/22 01:08:08;;;;;;;462.93;237.47;;;;;;;;;;5004801;28;20235;-52
2023/09/22 01:10:37;;;;;;;528.93;276.33;;;;;;;;;;5005406;28;20212;-52
2023/09/22 01:13:04;;;;;;;470.07;239.13;;;;;;;;;;5002083;28;20215;-52
2023/09/22 01:15:31;;;;;;;476.27;241.33;;;;;;;;;;5005831;28;20563;-52
2023/09/22 01:17:57;;;;;;;495.13;256.13;;;;;;;;;;5006231;28;20273;-52
2023/09/22 01:20:22;;;;;;;480.13;236.60;;;;;;;;;;5007566;28;20709;-52
2023/09/22 01:22:49;;;;;;;489.30;257.87;;;;;;;;;;5005562;28;20583;-52
2023/09/22 01:25:15;;;;;;;487.10;248.40;;;;;;;;;;5005721;28;20317;-52
2023/09/22 01:27:41;;;;;;;489.50;248.27;;;;;;;;;;4994101;28;20265;-52
2023/09/22 01:30:09;;;;;;;483.00;249.17;;;;;;;;;;5012164;28;20292;-52
2023/09/22 01:32:37;;;;;;;480.50;241.93;;;;;;;;;;5005882;28;20213;-52
2023/09/22 01:35:04;;;;;;;484.07;246.40;;;;;;;;;;5006316;28;20308;-52
2023/09/22 01:37:33;;;;;;;463.93;236.00;;;;;;;;;;5012813;28;20319;-52
2023/09/22 01:39:59;;;;;;;456.47;230.23;;;;;;;;;;5006033;28;20212;-52
2023/09/22 01:42:25;;;;;;;459.23;229.20;;;;;;;;;;5004268;28;20679;-52
2023/09/22 01:44:51;;;;;;;504.30;259.07;;;;;;;;;;5006191;28;20217;-52
2023/09/22 01:47:17;;;;;;;487.30;246.10;;;;;;;;;;5006317;28;20219;-52
2023/09/22 01:49:43;;;;;;;509.10;259.33;;;;;;;;;;5004973;28;21766;-52
2023/09/22 01:52:08;;;;;;;479.33;239.53;;;;;;;;;;5006286;28;20807;-52
2023/09/22 01:54:35;;;;;;;460.40;234.40;;;;;;;;;;5008841;28;20254;-52
2023/09/22 01:57:01;;;;;;;491.03;252.97;;;;;;;;;;5004245;28;20541;-52
2023/09/22 01:59:27;;;;;;;460.63;233.10;;;;;;;;;;5003074;28;20716;-52
2023/09/22 02:01:52;;;;;;;463.80;238.63;;;;;;;;;;5006075;28;20613;-52
2023/09/22 02:04:18;;;;;;;457.67;232.57;;;;;;;;;;5009922;28;20212;-52
2023/09/22 02:06:44;;;;;;;501.83;251.73;;;;;;;;;;5002730;28;21312;-52
2023/09/22 02:09:10;;;;;;;470.33;234.53;;;;;;;;;;5006189;28;20606;-52
2023/09/22 02:11:37;;;;;;;476.87;241.63;;;;;;;;;;5000664;28;20551;-52
2023/09/22 02:14:03;;;;;;;460.73;227.53;;;;;;;;;;5005589;28;20550;-52
2023/09/22 02:16:29;;;;;;;468.50;232.90;;;;;;;;;;5010065;28;20228;-52
2023/09/22 02:18:56;;;;;;;475.50;246.87;;;;;;;;;;5010921;28;20196;-52
2023/09/22 02:21:22;;;;;;;462.87;236.67;;;;;;;;;;5001218;28;20188;-52
2023/09/22 02:23:48;;;;;;;522.23;262.40;;;;;;;;;;5007190;28;20204;-54
2023/09/22 02:26:14;;;;;;;486.57;244.87;;;;;;;;;;5006275;28;20722;-52
2023/09/22 02:28:40;;;;;;;474.27;240.13;;;;;;;;;;5008496;28;20219;-52
2023/09/22 02:31:06;;;;;;;470.93;235.30;;;;;;;;;;5009118;28;20224;-52
2023/09/22 02:33:32;;;;;;;478.03;243.00;;;;;;;;;;5009271;28;20516;-52
2023/09/22 02:35:59;;;;;;;487.10;247.90;;;;;;;;;;5013683;28;20277;-52
2023/09/22 02:38:26;;;;;;;476.27;238.30;;;;;;;;;;5009776;28;20905;-52
2023/09/22 02:40:52;;;;;;;521.43;271.53;;;;;;;;;;4999035;28;20220;-52
2023/09/22 02:43:17;;;;;;;467.03;228.17;;;;;;;;;;5006595;28;20216;-51
2023/09/22 02:45:43;;;;;;;482.33;242.03;;;;;;;;;;5007386;28;20627;-52
2023/09/22 02:48:10;;;;;;;490.23;242.13;;;;;;;;;;5007598;28;20216;-52
2023/09/22 02:50:37;;;;;;;482.03;237.70;;;;;;;;;;5008234;28;20548;-52
2023/09/22 02:53:03;;;;;;;501.73;256.57;;;;;;;;;;5007314;28;20730;-52
2023/09/22 02:55:30;;;;;;;484.50;246.23;;;;;;;;;;5001099;28;20324;-52
2023/09/22 02:57:56;;;;;;;493.73;246.67;;;;;;;;;;5004717;28;20270;-52
2023/09/22 03:00:22;;;;;;;468.97;238.03;;;;;;;;;;5001855;28;20323;-52
2023/09/22 03:02:48;;;;;;;466.00;229.43;;;;;;;;;;5005205;28;20307;-52
2023/09/22 03:05:16;;;;;;;492.50;240.60;;;;;;;;;;5007852;28;20472;-52
2023/09/22 03:07:42;;;;;;;485.43;240.90;;;;;;;;;;5005161;28;21710;-52
2023/09/22 03:10:10;;;;;;;478.93;240.80;;;;;;;;;;4997503;28;20291;-52
2023/09/22 03:12:36;;;;;;;453.97;225.83;;;;;;;;;;5001855;28;20193;-52
2023/09/22 03:15:03;;;;;;;444.87;218.33;;;;;;;;;;5008157;28;20213;-52
2023/09/22 03:17:29;;;;;;;440.47;219.70;;;;;;;;;;5005164;28;20227;-52
2023/09/22 03:19:58;;;;;;;483.60;242.57;;;;;;;;;;4997234;28;20220;-52
2023/09/22 03:22:24;;;;;;;456.40;225.60;;;;;;;;;;5005112;28;20303;-52
2023/09/22 03:24:50;;;;;;;473.50;240.37;;;;;;;;;;5005670;28;20980;-52
2023/09/22 03:27:16;;;;;;;479.10;239.53;;;;;;;;;;5002585;28;20204;-52
2023/09/22 03:29:42;;;;;;;464.60;232.53;;;;;;;;;;5004485;28;20318;-52
2023/09/22 03:32:08;;;;;;;460.07;232.87;;;;;;;;;;5005057;28;20346;-52
2023/09/22 03:34:34;;;;;;;480.40;240.27;;;;;;;;;;5007485;28;20212;-52
2023/09/22 03:37:00;;;;;;;473.07;237.27;;;;;;;;;;5006248;28;20185;-52
2023/09/22 03:39:27;;;;;;;488.30;244.60;;;;;;;;;;5001962;28;20200;-52
2023/09/22 03:41:54;;;;;;;498.97;250.90;;;;;;;;;;5000924;28;20289;-52
2023/09/22 03:44:20;;;;;;;464.73;232.90;;;;;;;;;;5006262;28;20668;-52
2023/09/22 03:46:47;;;;;;;507.53;259.67;;;;;;;;;;5001825;28;20220;-52
2023/09/22 03:49:13;;;;;;;484.90;238.30;;;;;;;;;;4999489;28;20224;-52
2023/09/22 03:51:39;;;;;;;489.23;256.57;;;;;;;;;;5005503;28;20195;-52
2023/09/22 03:54:05;;;;;;;447.63;227.07;;;;;;;;;;5006957;28;20315;-52
2023/09/22 03:56:31;;;;;;;439.47;223.07;;;;;;;;;;5006275;28;20678;-52
2023/09/22 03:58:57;;;;;;;488.27;246.73;;;;;;;;;;4999880;28;20717;-52
2023/09/22 04:01:24;;;;;;;504.87;255.37;;;;;;;;;;4998932;28;20243;-52
2023/09/22 04:03:50;;;;;;;473.97;235.23;;;;;;;;;;5003851;28;20207;-52
2023/09/22 04:06:15;;;;;;;462.43;229.50;;;;;;;;;;5007157;28;20530;-52
2023/09/22 04:08:41;;;;;;;475.37;238.23;;;;;;;;;;5003747;28;20212;-52
2023/09/22 04:11:09;;;;;;;477.83;239.90;;;;;;;;;;4998130;28;20567;-52
2023/09/22 04:13:44;;;;;;;468.57;240.37;;;;;;;;;;5014136;28;20227;-66
2023/09/22 04:16:10;;;;;;;471.73;236.20;;;;;;;;;;5017929;28;20627;-65
2023/09/22 04:18:36;;;;;;;468.27;232.67;;;;;;;;;;5016017;28;20184;-66
2023/09/22 04:21:06;;;;;;;465.33;231.00;;;;;;;;;;5017931;28;20676;-66
2023/09/22 04:23:32;;;;;;;453.20;227.63;;;;;;;;;;5017000;28;20307;-66
2023/09/22 04:26:05;;;;;;;479.83;242.00;;;;;;;;;;5014343;28;20232;-65
2023/09/22 04:28:31;;;;;;;439.67;220.73;;;;;;;;;;5017507;28;20295;-66
2023/09/22 04:31:00;;;;;;;468.77;239.50;;;;;;;;;;5017531;28;20275;-65
2023/09/22 04:33:26;;;;;;;441.73;222.00;;;;;;;;;;5019308;28;20415;-65
2023/09/22 04:35:52;;;;;;;458.63;228.37;;;;;;;;;;5016466;28;20223;-66
2023/09/22 04:38:18;;;;;;;449.67;227.37;;;;;;;;;;5018305;28;20462;-66
2023/09/22 04:40:45;;;;;;;490.53;255.23;;;;;;;;;;5015053;28;20295;-66
2023/09/22 04:43:12;;;;;;;501.67;255.37;;;;;;;;;;5014791;28;20234;-66
2023/09/22 04:45:40;;;;;;;453.27;230.00;;;;;;;;;;5015725;28;20200;-66
2023/09/22 04:48:06;;;;;;;454.53;232.00;;;;;;;;;;4999477;28;20215;-66
2023/09/22 04:50:32;;;;;;;443.13;225.97;;;;;;;;;;5013884;28;20219;-66
2023/09/22 04:52:58;;;;;;;480.97;241.10;;;;;;;;;;5017095;28;20211;-66
2023/09/22 04:55:24;;;;;;;481.47;248.27;;;;;;;;;;5016450;28;20843;-66
2023/09/22 04:57:50;;;;;;;478.17;247.23;;;;;;;;;;5015347;28;20219;-66
2023/09/22 05:00:17;;;;;;;477.00;242.20;;;;;;;;;;5015806;28;20188;-66
2023/09/22 05:02:43;;;;;;;453.20;231.20;;;;;;;;;;5016586;28;20215;-66
2023/09/22 05:05:10;;;;;;;460.13;236.33;;;;;;;;;;4999018;28;20222;-67
2023/09/22 05:07:36;;;;;;;488.30;249.23;;;;;;;;;;5017682;28;20228;-66
2023/09/22 05:10:02;;;;;;;444.43;228.80;;;;;;;;;;5017213;28;20199;-65
2023/09/22 05:12:30;;;;;;;460.90;234.33;;;;;;;;;;5016978;28;20342;-65
2023/09/22 05:14:56;;;;;;;475.73;241.47;;;;;;;;;;5016906;28;20228;-66
2023/09/22 05:17:22;;;;;;;469.00;240.30;;;;;;;;;;5015892;28;20269;-65
2023/09/22 05:19:48;;;;;;;490.67;254.63;;;;;;;;;;5017250;28;21880;-65
2023/09/22 05:22:14;;;;;;;496.60;249.90;;;;;;;;;;5015274;28;20219;-65
2023/09/22 05:24:40;;;;;;;465.60;237.80;;;;;;;;;;5017450;28;20278;-64
2023/09/22 05:27:06;;;;;;;476.23;249.23;;;;;;;;;;4981171;28;20307;-64
2023/09/22 05:29:32;;;;;;;468.10;242.73;;;;;;;;;;5012750;28;20351;-64
2023/09/22 05:31:58;;;;;;;553.33;293.17;;;;;;;;;;5006624;28;20220;-64
2023/09/22 05:34:24;;;;;;;464.70;228.50;;;;;;;;;;5009849;28;20219;-67
2023/09/22 05:36:50;;;;;;;472.57;241.10;;;;;;;;;;5012692;28;20204;-63
2023/09/22 05:39:16;;;;;;;457.47;233.57;;;;;;;;;;5013840;28;20192;-65
2023/09/22 05:41:44;;;;;;;465.70;250.30;;;;;;;;;;5012635;28;20216;-69
2023/09/22 05:44:10;;;;;;;472.53;254.10;;;;;;;;;;4993016;28;20329;-64
2023/09/22 05:46:36;;;;;;;447.73;230.63;;;;;;;;;;4996517;28;20323;-68
2023/09/22 05:49:04;;;;;;;495.23;263.80;;;;;;;;;;5016504;28;20275;-67
2023/09/22 05:51:32;;;;;;;447.30;230.10;;;;;;;;;;5013185;28;20184;-68
2023/09/22 05:53:58;;;;;;;453.73;236.03;;;;;;;;;;5012117;28;20378;-67
2023/09/22 05:56:25;;;;;;;457.20;234.23;;;;;;;;;;5012778;28;20223;-67
2023/09/22 05:58:51;;;;;;;419.13;221.40;;;;;;;;;;5014580;28;20212;-67
2023/09/22 06:01:17;;;;;;;446.53;236.17;;;;;;;;;;4994385;28;20212;-67
2023/09/22 06:03:47;;;;;;;466.67;244.17;;;;;;;;;;5021462;28;20184;-68
2023/09/22 06:06:14;;;;;;;461.13;251.70;;;;;;;;;;5015741;28;20710;-69
2023/09/22 06:08:41;;;;;;;495.87;262.57;;;;;;;;;;5016919;28;20219;-66
2023/09/22 06:11:07;;;;;;;476.30;249.23;;;;;;;;;;5005470;28;20208;-63
2023/09/22 06:13:34;;;;;;;469.13;245.50;;;;;;;;;;5021051;28;20223;-63
2023/09/22 06:16:00;;;;;;;499.70;271.70;;;;;;;;;;5012395;28;20242;-63
2023/09/22 06:18:26;;;;;;;523.33;277.73;;;;;;;;;;5006887;28;20215;-62
2023/09/22 06:20:59;;;;;;;505.00;273.63;;;;;;;;;;5007144;28;20306;-62
2023/09/22 06:23:25;;;;;;;469.77;245.63;;;;;;;;;;5018137;28;20281;-63
2023/09/22 06:25:54;;;;;;;497.67;260.43;;;;;;;;;;5015905;28;20255;-62
2023/09/22 06:28:20;;;;;;;539.10;301.50;;;;;;;;;;5009191;28;20248;-61
2023/09/22 06:30:47;;;;;;;487.57;257.17;;;;;;;;;;5018062;28;20226;-61
2023/09/22 06:33:19;;;;;;;496.50;258.23;;;;;;;;;;5018271;28;20173;-63
2023/09/22 06:35:45;;;;;;;497.77;260.97;;;;;;;;;;5018000;28;20224;-62
2023/09/22 06:38:12;;;;;;;481.00;249.57;;;;;;;;;;5019693;28;20295;-59
2023/09/22 06:40:39;;;;;;;563.10;309.63;;;;;;;;;;5007116;28;20228;-59
2023/09/22 06:43:08;;;;;;;503.10;262.80;;;;;;;;;;5011435;28;20550;-58
2023/09/22 06:45:37;;;;;;;488.27;256.33;;;;;;;;;;5015781;28;20230;-59
2023/09/22 06:48:05;;;;;;;485.60;253.73;;;;;;;;;;5019262;28;20219;-59
2023/09/22 06:50:33;;;;;;;453.87;234.20;;;;;;;;;;5000778;28;20219;-59
2023/09/22 06:52:59;;;;;;;458.90;237.77;;;;;;;;;;5018841;28;20228;-58
2023/09/22 06:55:25;;;;;;;468.63;238.90;;;;;;;;;;5002541;28;20220;-60
2023/09/22 06:57:52;;;;;;;487.23;255.47;;;;;;;;;;5017506;28;20219;-58
2023/09/22 07:00:20;;;;;;;430.20;222.67;;;;;;;;;;5016758;28;20185;-58
2023/09/22 07:02:49;;;;;;;489.50;268.20;;;;;;;;;;5013653;28;20307;-58
2023/09/22 07:05:15;;;;;;;477.30;247.30;;;;;;;;;;5016709;28;20239;-59
2023/09/22 07:07:41;;;;;;;477.27;242.13;;;;;;;;;;5014164;28;20251;-60
2023/09/22 07:10:11;;;;;;;502.93;256.87;;;;;;;;;;5013382;28;20248;-63
2023/09/22 07:12:41;;;;;;;475.17;237.93;;;;;;;;;;5017236;28;20697;-60
2023/09/22 07:15:07;;;;;;;519.27;261.27;;;;;;;;;;5016833;28;20373;-60
2023/09/22 07:17:34;;;;;;;489.10;245.00;;;;;;;;;;5018349;28;20220;-60
2023/09/22 07:20:09;;;;;;;509.43;261.63;;;;;;;;;;5017679;28;20216;-60
2023/09/22 07:22:35;;;;;;;494.07;246.17;;;;;;;;;;4996450;28;20216;-59
2023/09/22 07:25:01;;;;;;;476.67;238.60;;;;;;;;;;5018718;28;20216;-60
2023/09/22 07:27:27;;;;;;;478.40;241.10;;;;;;;;;;5014774;28;20227;-59
2023/09/22 07:29:53;;;;;;;486.33;246.13;;;;;;;;;;5002329;28;20234;-59
2023/09/22 07:32:20;;;;;;;492.83;247.73;;;;;;;;;;5013804;28;20219;-59
2023/09/22 07:34:46;;;;;;;508.67;260.17;;;;;;;;;;5016634;28;20216;-59
2023/09/22 07:37:13;;;;;;;476.80;235.17;;;;;;;;;;5015941;28;20816;-59
2023/09/22 07:39:39;;;;;;;483.03;246.40;;;;;;;;;;5014941;28;20275;-59
2023/09/22 07:42:05;;;;;;;491.63;253.67;;;;;;;;;;5011131;28;20274;-59
2023/09/22 07:44:31;;;;;;;491.20;248.03;;;;;;;;;;5015139;28;20224;-59
2023/09/22 07:47:00;;;;;;;482.43;243.60;;;;;;;;;;5010854;28;20234;-59
2023/09/22 07:49:26;;;;;;;489.77;249.33;;;;;;;;;;5014504;28;20224;-59
2023/09/22 07:51:52;;;;;;;482.10;240.57;;;;;;;;;;5012658;28;20279;-59
2023/09/22 07:54:21;;;;;;;505.27;255.20;;;;;;;;;;5014769;28;20207;-59
2023/09/22 07:56:47;;;;;;;504.47;257.53;;;;;;;;;;5011541;28;20678;-60
2023/09/22 07:59:16;;;;;;;491.57;254.33;;;;;;;;;;5011279;28;20764;-59
2023/09/22 08:01:42;;;;;;;492.43;253.17;;;;;;;;;;5013468;28;20265;-59
2023/09/22 08:04:09;;;;;;;490.80;250.90;;;;;;;;;;5017261;28;20215;-59
2023/09/22 08:06:34;;;;;;;475.73;240.97;;;;;;;;;;5015186;28;20223;-60
2023/09/22 08:09:01;;;;;;;465.80;233.67;;;;;;;;;;5015814;28;20208;-60
2023/09/22 08:11:27;;;;;;;452.13;227.13;;;;;;;;;;5014536;28;20316;-59
2023/09/22 08:13:53;;;;;;;497.23;258.60;;;;;;;;;;5004700;28;20577;-59
2023/09/22 08:16:18;;;;;;;503.70;262.13;;;;;;;;;;5010979;28;20224;-59
2023/09/22 08:18:44;;;;;;;490.43;258.10;;;;;;;;;;5014052;28;20855;-59
2023/09/22 08:21:11;;;;;;;490.00;250.43;;;;;;;;;;5012438;28;20209;-59
2023/09/22 08:23:37;;;;;;;473.70;239.57;;;;;;;;;;5012780;28;20212;-60
2023/09/22 08:26:05;;;;;;;494.17;252.37;;;;;;;;;;5012103;28;20729;-60
2023/09/22 08:28:31;;;;;;;479.77;244.67;;;;;;;;;;5012041;28;20327;-60
2023/09/22 08:30:57;;;;;;;508.03;269.37;;;;;;;;;;5007390;28;20250;-60
2023/09/22 08:33:23;;;;;;;499.70;254.47;;;;;;;;;;5000887;28;20554;-60
2023/09/22 08:35:49;;;;;;;492.40;254.03;;;;;;;;;;4999973;28;21979;-61
2023/09/22 08:38:15;;;;;;;488.97;260.63;;;;;;;;;;5004938;28;20863;-60
2023/09/22 08:40:45;;;;;;;534.50;283.43;;;;;;;;;;5005245;28;20757;-60
2023/09/22 08:43:11;;;;;;;475.50;248.23;;;;;;;;;;5009132;28;20216;-60
2023/09/22 08:45:37;;;;;;;507.30;267.67;;;;;;;;;;5007062;28;20192;-60
2023/09/22 08:48:04;;;;;;;482.87;253.47;;;;;;;;;;5002755;28;20280;-59
2023/09/22 08:50:29;;;;;;;495.70;257.37;;;;;;;;;;4998956;28;20224;-60
2023/09/22 08:52:56;;;;;;;503.63;258.97;;;;;;;;;;5002215;28;20216;-60
2023/09/22 08:55:23;;;;;;;507.67;261.53;;;;;;;;;;5008213;28;20220;-60
2023/09/22 08:57:49;;;;;;;468.90;233.67;;;;;;;;;;5005566;28;20760;-60
2023/09/22 09:00:20;;;;;;;506.37;267.27;;;;;;;;;;5007793;28;20306;-59
2023/09/22 09:02:47;;;;;;;518.37;274.97;;;;;;;;;;5006112;28;20393;-60
2023/09/22 09:05:33;;;;;;;536.37;284.07;;;;;;;;;;5005134;28;20269;-60
2023/09/22 09:08:13;;;;;;;476.17;246.83;;;;;;;;;;5002241;28;20287;-60
2023/09/22 09:10:40;;;;;;;539.20;287.00;;;;;;;;;;4985375;28;20212;-59
2023/09/22 09:13:06;;;;;;;481.73;245.70;;;;;;;;;;5006090;28;20654;-60
2023/09/22 09:15:42;;;;;;;488.80;247.87;;;;;;;;;;5002684;28;20187;-59
2023/09/22 09:18:08;;;;;;;505.50;264.40;;;;;;;;;;5007642;28;20749;-59
2023/09/22 09:20:40;;;;;;;474.27;246.43;;;;;;;;;;5005012;28;20208;-58
2023/09/22 09:23:12;;;;;;;477.77;246.90;;;;;;;;;;5008472;28;20204;-59
2023/09/22 09:25:45;;;;;;;504.03;265.23;;;;;;;;;;5005127;28;20319;-63
2023/09/22 09:28:12;;;;;;;535.73;280.00;;;;;;;;;;4984961;28;20283;-64
2023/09/22 09:30:38;;;;;;;491.40;259.33;;;;;;;;;;5007213;28;20207;-64
2023/09/22 09:33:09;;;;;;;469.97;245.77;;;;;;;;;;5003525;28;20630;-64
2023/09/22 09:35:36;;;;;;;463.70;234.17;;;;;;;;;;4987311;28;20216;-63
2023/09/22 09:38:03;;;;;;;448.60;229.17;;;;;;;;;;5012746;28;20273;-65
2023/09/22 09:40:29;;;;;;;477.07;244.70;;;;;;;;;;5010662;28;20212;-70
2023/09/22 09:42:55;;;;;;;509.73;275.33;;;;;;;;;;5006641;28;20192;-66
2023/09/22 09:45:23;;;;;;;468.50;244.17;;;;;;;;;;5014573;28;20264;-67
2023/09/22 09:47:51;;;;;;;490.30;261.27;;;;;;;;;;5008732;28;20243;-67
2023/09/22 09:50:20;;;;;;;494.60;262.70;;;;;;;;;;5000196;28;20685;-67
2023/09/22 09:52:53;;;;;;;484.77;259.00;;;;;;;;;;5004259;28;20232;-66
2023/09/22 09:55:20;;;;;;;473.43;247.60;;;;;;;;;;5008018;28;20219;-68
2023/09/22 09:57:46;;;;;;;476.60;250.90;;;;;;;;;;5013227;28;20200;-64
2023/09/22 10:00:19;;;;;;;464.40;241.53;;;;;;;;;;5015068;28;20188;-65
2023/09/22 10:02:46;;;;;;;481.73;255.23;;;;;;;;;;5012338;28;20260;-65
2023/09/22 10:05:16;;;;;;;524.87;273.33;;;;;;;;;;5014503;28;20224;-59
2023/09/22 10:07:44;;;;;;;466.63;248.17;;;;;;;;;;5007668;28;20283;-60
2023/09/22 10:10:11;;;;;;;493.83;256.83;;;;;;;;;;5006822;28;20216;-63
2023/09/22 10:12:37;;;;;;;475.80;242.83;;;;;;;;;;5014188;28;20214;-65
2023/09/22 10:15:05;;;;;;;461.57;234.50;;;;;;;;;;5014646;28;20900;-65
2023/09/22 10:17:31;;;;;;;456.77;230.00;;;;;;;;;;4999563;28;20220;-66
2023/09/22 10:20:10;;;;;;;492.30;261.50;;;;;;;;;;5009306;28;20216;-66
2023/09/22 10:22:37;;;;;;;475.33;244.17;;;;;;;;;;5007058;28;20212;-66
2023/09/22 10:25:15;;;;;;;461.27;237.80;;;;;;;;;;5016781;28;20397;-65
2023/09/22 10:27:57;;;;;;;478.37;249.13;;;;;;;;;;5018848;28;20595;-66
2023/09/22 10:30:30;;;;;;;477.50;242.90;;;;;;;;;;5019151;28;20820;-66
2023/09/22 10:33:16;;;;;;;465.40;242.33;;;;;;;;;;5019508;28;20215;-63
2023/09/22 10:35:42;;;;;;;490.53;258.33;;;;;;;;;;5020678;28;20295;-67
2023/09/22 10:38:12;;;;;;;483.77;248.93;;;;;;;;;;5020035;28;20367;-65
2023/09/22 10:40:40;;;;;;;491.33;259.37;;;;;;;;;;5020837;28;20695;-64
2023/09/22 10:43:07;;;;;;;464.80;241.60;;;;;;;;;;5003554;28;20228;-66
2023/09/22 10:45:33;;;;;;;467.63;251.17;;;;;;;;;;5021478;28;20181;-64
2023/09/22 10:47:59;;;;;;;490.83;263.47;;;;;;;;;;5019321;28;20211;-65
2023/09/22 10:50:26;;;;;;;490.47;259.77;;;;;;;;;;5017381;28;20214;-65
2023/09/22 10:53:10;;;;;;;477.80;251.40;;;;;;;;;;5016249;28;20212;-65
2023/09/22 10:55:37;;;;;;;536.03;286.47;;;;;;;;;;5012859;28;20267;-67
2023/09/22 10:58:04;;;;;;;474.63;250.20;;;;;;;;;;5015810;28;20184;-65
2023/09/22 11:00:36;;;;;;;473.23;248.30;;;;;;;;;;5017008;28;20193;-65
2023/09/22 11:03:09;;;;;;;479.77;248.70;;;;;;;;;;4998506;28;20226;-66
2023/09/22 11:05:35;;;;;;;515.97;288.30;;;;;;;;;;5014570;28;22069;-66
2023/09/22 11:08:02;;;;;;;485.23;249.70;;;;;;;;;;5019375;28;20208;-67
2023/09/22 11:10:28;;;;;;;504.93;265.30;;;;;;;;;;5009954;28;20309;-67
2023/09/22 11:12:54;;;;;;;493.67;259.53;;;;;;;;;;5014872;28;20231;-67
2023/09/22 11:15:21;;;;;;;484.33;255.47;;;;;;;;;;5000212;28;20194;-65
2023/09/22 11:17:47;;;;;;;493.73;257.20;;;;;;;;;;5014661;28;20278;-64
2023/09/22 11:20:23;;;;;;;505.67;270.00;;;;;;;;;;5017323;28;20220;-65
2023/09/22 11:22:50;;;;;;;488.17;255.47;;;;;;;;;;5013388;28;20302;-66
2023/09/22 11:25:16;;;;;;;503.23;261.07;;;;;;;;;;5017650;28;20981;-64
2023/09/22 11:27:43;;;;;;;495.10;257.07;;;;;;;;;;5004586;28;20273;-65
2023/09/22 11:30:14;;;;;;;479.07;246.67;;;;;;;;;;5006228;28;20220;-62
2023/09/22 11:32:43;;;;;;;488.20;253.20;;;;;;;;;;5009652;28;20304;-62
2023/09/22 11:35:09;;;;;;;481.60;256.87;;;;;;;;;;5005312;28;20216;-62
2023/09/22 11:37:35;;;;;;;510.97;269.97;;;;;;;;;;5006472;28;20227;-62
2023/09/22 11:40:00;;;;;;;484.10;252.13;;;;;;;;;;5009957;28;20188;-62
2023/09/22 11:42:26;;;;;;;471.10;247.40;;;;;;;;;;5004140;28;20298;-63
2023/09/22 11:44:59;;;;;;;500.40;268.40;;;;;;;;;;5012325;28;20211;-62
2023/09/22 11:47:25;;;;;;;503.33;275.30;;;;;;;;;;5004126;28;20255;-63
2023/09/22 11:49:51;;;;;;;476.63;252.47;;;;;;;;;;5011156;28;20810;-63
2023/09/22 11:52:28;;;;;;;486.03;259.80;;;;;;;;;;5010827;28;20672;-63
2023/09/22 11:54:54;;;;;;;484.23;253.40;;;;;;;;;;5009071;28;20180;-63
2023/09/22 11:57:19;;;;;;;518.53;277.90;;;;;;;;;;5003739;28;20211;-63
2023/09/22 11:59:48;;;;;;;489.57;256.97;;;;;;;;;;5012496;28;20219;-62
2023/09/22 12:02:14;;;;;;;504.60;264.70;;;;;;;;;;5008722;28;20212;-64
2023/09/22 12:04:40;;;;;;;486.37;257.77;;;;;;;;;;4991154;28;20216;-64
2023/09/22 12:07:06;;;;;;;465.33;241.30;;;;;;;;;;5004586;28;20754;-61
2023/09/22 12:09:32;;;;;;;463.23;243.87;;;;;;;;;;5000655;28;20215;-61
2023/09/22 12:11:58;;;;;;;480.70;254.53;;;;;;;;;;5020800;28;20234;-60
2023/09/22 12:14:24;;;;;;;484.63;257.90;;;;;;;;;;5016988;28;20531;-59
2023/09/22 12:16:51;;;;;;;465.63;243.17;;;;;;;;;;5017877;28;20274;-62
2023/09/22 12:19:19;;;;;;;497.20;260.93;;;;;;;;;;5000506;28;20277;-60
2023/09/22 12:21:45;;;;;;;459.77;240.67;;;;;;;;;;4998607;28;20781;-64
2023/09/22 12:24:11;;;;;;;496.87;269.60;;;;;;;;;;5012447;28;20891;-65
2023/09/22 12:26:36;;;;;;;470.83;252.90;;;;;;;;;;5011173;28;20222;-70
2023/09/22 12:29:03;;;;;;;469.33;245.70;;;;;;;;;;5018720;28;20222;-65
2023/09/22 12:31:29;;;;;;;474.00;247.30;;;;;;;;;;5014358;28;20208;-65
2023/09/22 12:33:56;;;;;;;473.97;251.50;;;;;;;;;;5016260;28;20246;-65
2023/09/22 12:36:21;;;;;;;477.03;250.57;;;;;;;;;;5014702;28;20295;-66
2023/09/22 12:38:48;;;;;;;460.70;241.70;;;;;;;;;;5017892;28;20310;-66
2023/09/22 12:41:14;;;;;;;476.97;243.70;;;;;;;;;;5016176;28;20334;-65
2023/09/22 12:43:40;;;;;;;482.23;250.43;;;;;;;;;;5017253;28;20247;-66
2023/09/22 12:46:10;;;;;;;498.30;262.10;;;;;;;;;;5012649;28;20667;-66
2023/09/22 12:48:42;;;;;;;491.77;259.30;;;;;;;;;;5008581;28;20777;-66
2023/09/22 12:51:11;;;;;;;472.67;244.60;;;;;;;;;;5013639;28;20212;-66
2023/09/22 12:53:37;;;;;;;467.23;241.53;;;;;;;;;;5002464;28;20208;-66
2023/09/22 12:56:03;;;;;;;486.47;255.13;;;;;;;;;;5009408;28;20533;-66
2023/09/22 12:58:29;;;;;;;483.17;251.90;;;;;;;;;;5014458;28;20379;-66
2023/09/22 13:00:59;;;;;;;489.73;256.83;;;;;;;;;;5015116;28;21907;-66
2023/09/22 13:03:26;;;;;;;468.83;240.93;;;;;;;;;;5021452;28;20576;-66
2023/09/22 13:05:52;;;;;;;465.20;239.47;;;;;;;;;;5013752;28;20223;-66
2023/09/22 13:08:18;;;;;;;486.70;257.83;;;;;;;;;;5011617;28;20586;-65
2023/09/22 13:10:45;;;;;;;508.53;265.50;;;;;;;;;;5012105;28;20258;-66
2023/09/22 13:13:11;;;;;;;476.20;244.57;;;;;;;;;;5017608;28;20281;-66
2023/09/22 13:15:44;;;;;;;488.93;253.30;;;;;;;;;;5013469;28;20267;-66
2023/09/22 13:18:10;;;;;;;529.53;277.13;;;;;;;;;;5016419;28;20207;-66
2023/09/22 13:20:37;;;;;;;461.63;232.80;;;;;;;;;;5021715;28;20207;-66
2023/09/22 13:23:04;;;;;;;477.17;242.43;;;;;;;;;;5021214;28;20238;-66
2023/09/22 13:25:30;;;;;;;455.63;228.53;;;;;;;;;;5021837;28;20236;-67
2023/09/22 13:27:58;;;;;;;474.93;244.57;;;;;;;;;;5022800;28;20250;-66
2023/09/22 13:30:24;;;;;;;470.70;235.97;;;;;;;;;;5005853;28;20184;-66
2023/09/22 13:32:50;;;;;;;471.87;238.07;;;;;;;;;;5023031;28;20216;-66
2023/09/22 13:35:16;;;;;;;478.40;241.80;;;;;;;;;;5022446;28;20232;-65
2023/09/22 13:37:42;;;;;;;487.40;248.63;;;;;;;;;;5020534;28;20736;-66
2023/09/22 13:40:11;;;;;;;473.40;237.70;;;;;;;;;;5021861;28;20578;-66
2023/09/22 13:42:37;;;;;;;470.77;231.93;;;;;;;;;;5018653;28;20180;-66
2023/09/22 13:45:05;;;;;;;474.87;240.87;;;;;;;;;;5017938;28;20337;-67
2023/09/22 13:47:30;;;;;;;487.20;244.80;;;;;;;;;;5022285;28;20236;-66
2023/09/22 13:49:56;;;;;;;453.50;227.37;;;;;;;;;;5016304;28;20226;-66
2023/09/22 13:52:23;;;;;;;485.77;241.77;;;;;;;;;;5017462;28;20208;-66